Flight Track Log - Related Links

Times and Time Zones

All times are in EDT time to prevent confusion due to time zone crossing. See the SWA3028 flight status page for this flight to view local times or setup timezone preferences in your user account.

Time Position Orientation Groundspeed Altitude Reporting Facility
EDT Latitude Longitude Course Direction KTS MPH feet Rate Location/Type
Fri 08:03:09 AM 43.0975 -77.6972 218° Southwest 144 166 1,600  Level Cleveland Center
Fri 08:03:39 AM 43.0750 -77.7211 218° Southwest 184 212 2,500 2,542 Climbing Cleveland Center
Fri 08:05:07 AM 42.9881 -77.7422 190° South 217 250 6,600 3,324 Climbing Cleveland Center
Fri 08:06:07 AM 42.9156 -77.7567 188° South 251 289 10,700 3,300 Climbing Cleveland Center
Fri 08:07:07 AM 42.8306 -77.7747 189° South 289 333 13,200 2,850 Climbing Cleveland Center
Fri 08:08:07 AM 42.7392 -77.7986 191° South 319 367 16,400 2,900 Climbing Cleveland Center
Fri 08:09:07 AM 42.6439 -77.8197 189° South 340 391 19,000 2,600 Climbing Cleveland Center
Fri 08:10:07 AM 42.5425 -77.8467 191° South 361 415 21,600 2,450 Climbing Cleveland Center
Fri 08:11:07 AM 42.4908 -77.9644 239° Southwest 334 384 23,900 2,150 Climbing Cleveland Center
Fri 08:12:07 AM 42.4586 -78.1064 253° West 358 412 25,900 1,850 Climbing Cleveland Center
Fri 08:13:07 AM 42.4222 -78.2542 252° West 383 441 27,600 1,650 Climbing Cleveland Center
Fri 08:14:07 AM 42.3833 -78.4047 251° West 413 475 29,200 1,700 Climbing Cleveland Center
Fri 08:15:07 AM 42.3444 -78.5633 252° West 435 501 31,000 1,900 Climbing Cleveland Center
Fri 08:16:07 AM 42.3056 -78.7133 251° West 441 507 33,000 1,000 Climbing Cleveland Center
Fri 08:17:07 AM 42.2661 -78.8661 251° West 441 507 33,000 1,100 Level Cleveland Center
Fri 08:18:07 AM 42.2286 -79.0156 251° West 433 498 35,200 2,100 Climbing Cleveland Center
Fri 08:19:07 AM 42.1950 -79.1622 253° West 428 493 37,200 1,600 Climbing Cleveland Center
Fri 08:20:07 AM 42.1781 -79.3111 261° West 418 481 38,400 1,100 Climbing Cleveland Center
Fri 08:21:07 AM 42.1589 -79.4656 261° West 418 481 39,400 800 Climbing Cleveland Center
Fri 08:22:07 AM 42.1394 -79.6172 260° West 418 481 40,000 300 Climbing Cleveland Center
Fri 08:23:07 AM 42.1197 -79.7825 261° West 413 475 40,000  Level Cleveland Center
Fri 08:24:07 AM 42.0978 -79.9311 259° West 413 475 40,000  Level Cleveland Center
Fri 08:25:07 AM 42.0797 -80.0656 260° West 413 475 40,000  Level Cleveland Center
Fri 08:26:07 AM 42.0594 -80.2308 261° West 413 475 40,000  Level Cleveland Center
Fri 08:27:07 AM 42.0411 -80.3819 261° West 413 475 40,000  Level Cleveland Center
Fri 08:28:07 AM 42.0183 -80.5272 258° West 413 475 40,000  Level Cleveland Center
Fri 08:29:07 AM 41.9975 -80.6808 260° West 413 475 40,000  Level Cleveland Center
Fri 08:30:07 AM 41.9764 -80.8261 259° West 413 475 40,000  Level Cleveland Center
Fri 08:31:07 AM 41.9572 -80.9739 260° West 407 468 40,000  Level Cleveland Center
Fri 08:32:07 AM 41.9358 -81.1192 259° West 408 470 40,000  Level Cleveland Center
Fri 08:33:07 AM 41.9142 -81.2667 259° West 408 470 40,000  Level Cleveland Center
Fri 08:34:07 AM 41.8944 -81.4089 259° West 408 470 40,000  Level Cleveland Center
Fri 08:35:07 AM 41.8744 -81.5536 260° West 408 470 40,000  Level Cleveland Center
Fri 08:36:07 AM 41.8522 -81.7011 259° West 408 470 40,000  Level Cleveland Center
Fri 08:37:07 AM 41.8300 -81.8456 258° West 408 470 40,000  Level Cleveland Center
Fri 08:38:07 AM 41.8094 -81.9900 259° West 403 464 40,000  Level Cleveland Center
Fri 08:39:07 AM 41.7847 -82.1286 257° West 393 452 40,000  Level Cleveland Center
Fri 08:40:07 AM 41.7600 -82.2728 257° West 393 452 40,000  Level Cleveland Center
Fri 08:41:07 AM 41.7389 -82.4225 259° West 398 458 40,000  Level Cleveland Center
Fri 08:42:07 AM 41.7156 -82.5664 258° West 403 464 40,000  Level Cleveland Center
Fri 08:43:07 AM 41.6919 -82.7186 258° West 416 479 40,000  Level Cleveland Center
Fri 08:44:07 AM 41.6703 -82.8653 259° West 416 479 40,000  Level Cleveland Center
Fri 08:45:07 AM 41.6444 -83.0172 257° West 416 479 40,000 -250 Level Cleveland Center
Fri 08:46:07 AM 41.6267 -83.1528 260° West 411 473 39,500 -700 Descending Cleveland Center
Fri 08:47:07 AM 41.5983 -83.3017 256° West 411 473 38,600 -900 Descending Cleveland Center
Fri 08:48:07 AM 41.5739 -83.4506 258° West 411 473 37,700 -950 Descending Cleveland Center
Fri 08:49:07 AM 41.5511 -83.5994 258° West 411 473 36,700 -850 Descending Cleveland Center
Fri 08:50:07 AM 41.5242 -83.7478 256° West 411 473 36,000 -359 Descending Cleveland Center
Fri 08:51:04 AM 41.5078 -83.8761 260° West 410 472 36,000  Level Chicago Center
Fri 08:52:05 AM 41.4997 -84.0256 266° West 410 472 36,000  Level Chicago Center
Fri 08:53:06 AM 41.5028 -84.2094 271° West 415 478 36,000 -590 Level Chicago Center
Fri 08:54:07 AM 41.5064 -84.3594 272° West 409 471 34,800 -1,707 Descending Chicago Center
Fri 08:55:09 AM 41.5092 -84.5081 271° West 403 464 32,500 -2,146 Descending Chicago Center
Fri 08:56:10 AM 41.5114 -84.6533 271° West 395 455 30,400 -1,230 Descending Chicago Center
Fri 08:57:11 AM 41.5128 -84.7969 271° West 389 448 30,000 -197 Descending Chicago Center
Fri 08:58:12 AM 41.5156 -84.9456 271° West 396 456 30,000 -390 Level Chicago Center
Fri 08:59:14 AM 41.5169 -85.0925 271° West 398 458 29,200 -1,317 Descending Chicago Center
Fri 09:00:15 AM 41.5186 -85.2347 271° West 386 444 27,300 -1,869 Descending Chicago Center
Fri 09:01:16 AM 41.5181 -85.3719 270° West 368 423 25,400 -1,854 Descending Chicago Center
Fri 09:02:18 AM 41.5211 -85.5114 272° West 366 421 23,500 -1,805 Descending Chicago Center
Fri 09:03:19 AM 41.5217 -85.6419 270° West 353 406 21,700 -1,770 Descending Chicago Center
Fri 09:04:20 AM 41.5228 -85.7731 271° West 352 405 19,900 -1,610 Descending Chicago Center
Fri 09:05:22 AM 41.5239 -85.8989 271° West 343 395 18,400 -1,561 Descending Chicago Center
Fri 09:06:23 AM 41.5236 -86.0197 270° West 329 379 16,700 -1,918 Descending Chicago Center
Fri 09:07:24 AM 41.5242 -86.1639 270° West 321 369 14,500 -1,951 Descending Chicago Center
Fri 09:08:26 AM 41.5228 -86.2803 269° West 316 364 12,700 -1,659 Descending Chicago Center
Fri 09:09:27 AM 41.5228 -86.3942 270° West 309 356 11,100 -836 Descending Chicago Center
Fri 09:10:28 AM 41.5217 -86.5058 269° West 304 350 11,000 -49 Descending Chicago Center
Fri 09:11:30 AM 41.5217 -86.6175 270° West 302 348 11,000 -242 Level Chicago Center
Fri 09:12:32 AM 41.5208 -86.7231 269° West 299 344 10,500 -927 Descending Chicago Center
Fri 09:13:33 AM 41.5197 -86.8583 269° West 304 350 9,100 -1,131 Descending Chicago Center
Fri 09:14:34 AM 41.5197 -86.9664 270° West 292 336 8,200 -934 Descending Chicago Center
Fri 09:15:35 AM 41.5261 -87.0683 275° West 281 323 7,200 -976 Descending Chicago Center
Fri 09:16:37 AM 41.5536 -87.1672 290° West 286 329 6,200 -976 Descending Chicago Center
Fri 09:17:38 AM 41.5789 -87.2628 290° West 279 321 5,200 -732 Descending Chicago Center
Fri 09:18:40 AM 41.6033 -87.3586 289° West 274 315 4,700 -585 Descending Chicago Center
Fri 09:19:41 AM 41.6319 -87.4656 290° West 261 300 4,000 -341 Descending Chicago Center
Fri 09:20:43 AM 41.6522 -87.5442 289° West 234 269 4,000 -146 Level Chicago Center
Fri 09:21:44 AM 41.6825 -87.6069 303° West 214 246 3,700 -780 Descending Chicago Center
Fri 09:22:46 AM 41.7200 -87.6617 313° West 207 238 2,400 -1,024 Descending Chicago Center
Fri 09:23:47 AM 41.7497 -87.7047 313° West 185 213 1,600 -683 Descending Chicago Center
Fri 09:24:49 AM 41.7753 -87.7389 315° West 153 176 1,000 -581 Descending Chicago Center
Fri 09:26:00 AM 41.7833 -87.7500 334° Northwest  Level FlightAware Approximate

Login

Don't have an account? Register now (free) for customized features, flight alerts, and more!